createdAt,value
2022-12-16T00:00:01.267Z,-3.64
2022-12-16T00:01:01.361Z,-3.52
2022-12-16T00:02:01.377Z,-3.63
2022-12-16T00:03:01.322Z,-3.69
2022-12-16T00:04:01.258Z,-3.67
2022-12-16T00:05:01.223Z,-3.69
2022-12-16T00:06:01.196Z,-3.67
2022-12-16T00:07:01.204Z,-3.67
2022-12-16T00:08:01.225Z,-3.67
2022-12-16T00:09:01.180Z,-3.67
2022-12-16T00:10:01.166Z,-3.67
2022-12-16T00:11:01.167Z,-3.69
2022-12-16T00:12:01.148Z,-3.67
2022-12-16T00:13:03.674Z,-3.66
2022-12-16T00:14:02.149Z,-3.59
2022-12-16T00:15:01.106Z,-3.66
2022-12-16T00:16:01.177Z,-3.66
2022-12-16T00:17:01.085Z,-3.72
2022-12-16T00:18:01.082Z,-3.64
2022-12-16T00:19:01.079Z,-3.66
2022-12-16T00:20:01.371Z,-3.61
2022-12-16T00:21:01.044Z,-3.67
2022-12-16T00:22:01.044Z,-3.67
2022-12-16T00:23:01.021Z,-3.59
2022-12-16T00:24:01.044Z,-3.58
2022-12-16T00:25:01.072Z,-3.52
2022-12-16T00:26:01.012Z,-3.59
2022-12-16T00:27:00.996Z,-3.63
2022-12-16T00:28:01.306Z,-3.61
2022-12-16T00:29:00.964Z,-3.51
2022-12-16T00:30:00.956Z,-3.48
2022-12-16T00:31:00.956Z,-3.45
2022-12-16T00:32:01.008Z,-3.54
2022-12-16T00:33:00.933Z,-3.49
2022-12-16T00:34:00.913Z,-3.51
2022-12-16T00:35:00.981Z,-3.45
2022-12-16T00:36:00.920Z,-3.49
2022-12-16T00:37:00.872Z,-3.52
2022-12-16T00:38:00.861Z,-3.59
2022-12-16T00:39:00.851Z,-3.51
2022-12-16T00:40:00.873Z,-3.59
2022-12-16T00:41:00.849Z,-3.59
2022-12-16T00:42:00.868Z,-3.54
2022-12-16T00:43:00.822Z,-3.55
2022-12-16T00:44:00.844Z,-3.55
2022-12-16T00:45:00.781Z,-3.59
2022-12-16T00:46:00.816Z,-3.56
2022-12-16T00:47:00.773Z,-3.66
2022-12-16T00:48:00.789Z,-3.61
2022-12-16T00:49:00.740Z,-3.63
2022-12-16T00:50:00.745Z,-3.70
2022-12-16T00:51:00.723Z,-3.67
2022-12-16T00:52:00.777Z,-3.63
2022-12-16T00:53:00.698Z,-3.63
2022-12-16T00:54:00.719Z,-3.59
2022-12-16T00:55:00.677Z,-3.59
2022-12-16T00:56:00.668Z,-3.63
2022-12-16T00:57:00.657Z,-3.59
2022-12-16T00:58:00.674Z,-3.61
2022-12-16T00:59:00.663Z,-3.58
2022-12-16T01:00:00.627Z,-3.58
2022-12-16T01:01:00.682Z,-3.56
2022-12-16T01:02:00.928Z,-3.56
2022-12-16T01:03:00.733Z,-3.61
2022-12-16T01:04:00.588Z,-3.56
2022-12-16T01:05:00.596Z,-3.55
2022-12-16T01:06:00.565Z,-3.56
2022-12-16T01:07:00.550Z,-3.54
2022-12-16T01:08:00.561Z,-3.51
2022-12-16T01:09:00.527Z,-3.58
2022-12-16T01:10:00.525Z,-3.46
2022-12-16T01:11:00.555Z,-3.40
2022-12-16T01:12:00.501Z,-3.40
2022-12-16T01:13:00.505Z,-3.46
2022-12-16T01:14:00.485Z,-3.41
2022-12-16T01:15:00.471Z,-3.38
2022-12-16T01:16:00.548Z,-3.33
2022-12-16T01:17:00.528Z,-3.31
2022-12-16T01:18:00.436Z,-3.37
2022-12-16T01:19:00.425Z,-3.33
2022-12-16T01:20:00.426Z,-3.34
2022-12-16T01:21:00.395Z,-3.25
2022-12-16T01:22:00.414Z,-3.30
2022-12-16T01:23:00.395Z,-3.23
2022-12-16T01:24:00.384Z,-3.16
2022-12-16T01:25:00.366Z,-3.13
2022-12-16T01:26:00.391Z,-3.13
2022-12-16T01:27:00.366Z,-3.19
2022-12-16T01:28:00.376Z,-3.12
2022-12-16T01:29:00.324Z,-3.16
2022-12-16T01:30:00.314Z,-3.20
2022-12-16T01:31:00.302Z,-3.23
2022-12-16T01:32:00.338Z,-3.20
2022-12-16T01:33:00.293Z,-3.28
2022-12-16T01:34:00.286Z,-3.33
2022-12-16T01:35:00.255Z,-3.30
2022-12-16T01:36:00.241Z,-3.33
2022-12-16T01:37:00.227Z,-3.22
2022-12-16T01:38:00.224Z,-3.23
2022-12-16T01:39:00.224Z,-3.30
2022-12-16T01:40:00.203Z,-3.35
2022-12-16T01:41:00.180Z,-3.37
2022-12-16T01:42:00.181Z,-3.30
2022-12-16T01:43:00.170Z,-3.40
2022-12-16T01:44:00.159Z,-3.35
2022-12-16T01:45:00.162Z,-3.37
2022-12-16T01:46:00.230Z,-3.35
2022-12-16T01:47:00.122Z,-3.33
2022-12-16T01:48:00.108Z,-3.34
2022-12-16T01:49:00.098Z,-3.33
2022-12-16T01:50:00.109Z,-3.33
2022-12-16T01:51:00.112Z,-3.28
2022-12-16T01:52:00.081Z,-3.44
2022-12-16T01:53:00.076Z,-3.35
2022-12-16T01:54:00.064Z,-3.33
2022-12-16T01:55:00.027Z,-3.25
2022-12-16T01:56:00.088Z,-3.33
2022-12-16T01:57:00.018Z,-3.31
2022-12-16T01:58:00.010Z,-3.34
2022-12-16T01:58:59.998Z,-3.40
2022-12-16T02:00:00.008Z,-3.35
2022-12-16T02:01:00.004Z,-3.37
2022-12-16T02:02:00.344Z,-3.38
2022-12-16T02:03:00.097Z,-3.40
2022-12-16T02:03:59.974Z,-3.46
2022-12-16T02:04:59.927Z,-3.46
2022-12-16T02:05:59.935Z,-3.45
2022-12-16T02:06:59.909Z,-3.44
2022-12-16T02:07:59.931Z,-3.46
2022-12-16T02:08:59.879Z,-3.48
2022-12-16T02:09:59.887Z,-3.40
2022-12-16T02:10:59.909Z,-3.41
2022-12-16T02:11:59.855Z,-3.46
2022-12-16T02:12:59.886Z,-3.45
2022-12-16T02:13:59.839Z,-3.38
2022-12-16T02:15:06.867Z,-3.44
2022-12-16T02:15:59.806Z,-3.48
2022-12-16T02:16:59.838Z,-3.46
2022-12-16T02:17:59.787Z,-3.54
2022-12-16T02:18:59.796Z,-3.55
2022-12-16T02:19:59.765Z,-3.49
2022-12-16T02:20:59.746Z,-3.40
2022-12-16T02:21:59.745Z,-3.40
2022-12-16T02:22:59.726Z,-3.46
2022-12-16T02:23:59.723Z,-3.40
2022-12-16T02:24:59.725Z,-3.40
2022-12-16T02:25:59.696Z,-3.44
2022-12-16T02:26:59.695Z,-3.44
2022-12-16T02:27:59.706Z,-3.40
2022-12-16T02:28:59.661Z,-3.45
2022-12-16T02:29:59.653Z,-3.52
2022-12-16T02:30:59.721Z,-3.51
2022-12-16T02:31:59.634Z,-3.55
2022-12-16T02:32:59.630Z,-3.51
2022-12-16T02:33:59.614Z,-3.54
2022-12-16T02:34:59.597Z,-3.55
2022-12-16T02:35:59.614Z,-3.52
2022-12-16T02:36:59.582Z,-3.52
2022-12-16T02:37:59.570Z,-3.49
2022-12-16T02:38:59.621Z,-3.54
2022-12-16T02:39:59.541Z,-3.55
2022-12-16T02:40:59.533Z,-3.49
2022-12-16T02:41:59.542Z,-3.46
2022-12-16T02:42:59.514Z,-3.48
2022-12-16T02:43:59.511Z,-3.44
2022-12-16T02:44:59.490Z,-3.49
2022-12-16T02:45:59.534Z,-3.51
2022-12-16T02:46:59.469Z,-3.52
2022-12-16T02:47:59.521Z,-3.61
2022-12-16T02:48:59.440Z,-3.56
2022-12-16T02:49:59.440Z,-3.56
2022-12-16T02:50:59.422Z,-3.55
2022-12-16T02:51:59.418Z,-3.46
2022-12-16T02:52:59.400Z,-3.54
2022-12-16T02:53:59.430Z,-3.52
2022-12-16T02:54:59.383Z,-3.51
2022-12-16T02:55:59.384Z,-3.54
2022-12-16T02:56:59.360Z,-3.45
2022-12-16T02:57:59.348Z,-3.46
2022-12-16T02:58:59.367Z,-3.44
2022-12-16T02:59:59.328Z,-3.46
2022-12-16T03:00:59.402Z,-3.45
2022-12-16T03:01:59.494Z,-3.48
2022-12-16T03:02:59.391Z,-3.54
2022-12-16T03:03:59.291Z,-3.54
2022-12-16T03:04:59.297Z,-3.51
2022-12-16T03:05:59.267Z,-3.56
2022-12-16T03:06:59.256Z,-3.52
2022-12-16T03:07:59.257Z,-3.51
2022-12-16T03:08:59.226Z,-3.44
2022-12-16T03:09:59.219Z,-3.44
2022-12-16T03:10:59.225Z,-3.40
2022-12-16T03:11:59.204Z,-3.41
2022-12-16T03:12:59.185Z,-3.41
2022-12-16T03:13:59.185Z,-3.44
2022-12-16T03:14:59.165Z,-3.56
2022-12-16T03:15:59.185Z,-3.52
2022-12-16T03:16:59.184Z,-3.51
2022-12-16T03:17:59.137Z,-3.52
2022-12-16T03:18:59.135Z,-3.45
2022-12-16T03:19:59.116Z,-3.40
2022-12-16T03:20:59.095Z,-3.56
2022-12-16T03:21:59.124Z,-3.52
2022-12-16T03:22:59.074Z,-3.52
2022-12-16T03:23:59.073Z,-3.49
2022-12-16T03:24:59.066Z,-3.52
2022-12-16T03:25:59.051Z,-3.55
2022-12-16T03:26:59.042Z,-3.56
2022-12-16T03:27:59.043Z,-3.69
2022-12-16T03:28:59.012Z,-3.64
2022-12-16T03:29:59.014Z,-3.69
2022-12-16T03:30:59.018Z,-3.67
2022-12-16T03:31:58.985Z,-3.67
2022-12-16T03:32:58.973Z,-3.74
2022-12-16T03:33:58.992Z,-3.75
2022-12-16T03:34:58.952Z,-3.77
2022-12-16T03:35:58.941Z,-3.80
2022-12-16T03:36:58.931Z,-3.86
2022-12-16T03:37:58.920Z,-3.74
2022-12-16T03:38:58.911Z,-3.77
2022-12-16T03:39:58.911Z,-3.69
2022-12-16T03:40:58.882Z,-3.69
2022-12-16T03:41:58.883Z,-3.69
2022-12-16T03:42:58.861Z,-3.67
2022-12-16T03:43:58.861Z,-3.69
2022-12-16T03:44:58.876Z,-3.66
2022-12-16T03:45:58.878Z,-3.66
2022-12-16T03:46:58.821Z,-3.63
2022-12-16T03:47:58.826Z,-3.66
2022-12-16T03:48:58.799Z,-3.75
2022-12-16T03:49:58.789Z,-3.82
2022-12-16T03:50:58.831Z,-3.85
2022-12-16T03:51:58.769Z,-3.80
2022-12-16T03:52:58.763Z,-3.91
2022-12-16T03:53:58.756Z,-3.78
2022-12-16T03:54:58.736Z,-3.70
2022-12-16T03:55:58.728Z,-3.75
2022-12-16T03:56:58.746Z,-3.78
2022-12-16T03:57:58.708Z,-3.77
2022-12-16T03:58:58.697Z,-3.72
2022-12-16T03:59:58.686Z,-3.66
2022-12-16T04:00:58.667Z,-3.59
2022-12-16T04:01:58.792Z,-3.54
2022-12-16T04:02:58.855Z,-3.49
2022-12-16T04:03:58.753Z,-3.55
2022-12-16T04:04:58.627Z,-3.52
2022-12-16T04:05:58.617Z,-3.54
2022-12-16T04:06:58.606Z,-3.58
2022-12-16T04:08:01.767Z,-3.55
2022-12-16T04:08:58.585Z,-3.46
2022-12-16T04:09:58.576Z,-3.40
2022-12-16T04:10:58.565Z,-3.40
2022-12-16T04:11:58.556Z,-3.41
2022-12-16T04:12:58.544Z,-3.46
2022-12-16T04:13:58.569Z,-3.45
2022-12-16T04:14:58.523Z,-3.49
2022-12-16T04:15:58.564Z,-3.46
2022-12-16T04:16:58.512Z,-3.45
2022-12-16T04:17:58.494Z,-3.46
2022-12-16T04:18:58.475Z,-3.45
2022-12-16T04:19:58.483Z,-3.44
2022-12-16T04:20:58.459Z,-3.40
2022-12-16T04:21:58.452Z,-3.45
2022-12-16T04:22:58.437Z,-3.52
2022-12-16T04:23:58.432Z,-3.38
2022-12-16T04:24:58.433Z,-3.38
2022-12-16T04:25:58.403Z,-3.41
2022-12-16T04:26:58.393Z,-3.38
2022-12-16T04:27:58.382Z,-3.46
2022-12-16T04:28:58.382Z,-3.44
2022-12-16T04:29:58.360Z,-3.38
2022-12-16T04:30:58.440Z,-3.37
2022-12-16T04:31:58.331Z,-3.40
2022-12-16T04:32:58.331Z,-3.34
2022-12-16T04:33:58.321Z,-3.48
2022-12-16T04:34:58.311Z,-3.55
2022-12-16T04:35:58.301Z,-3.67
2022-12-16T04:36:58.309Z,-3.56
2022-12-16T04:37:58.281Z,-3.67
2022-12-16T04:38:58.269Z,-3.66
2022-12-16T04:39:58.250Z,-3.63
2022-12-16T04:40:58.249Z,-3.58
2022-12-16T04:41:58.233Z,-3.56
2022-12-16T04:42:58.239Z,-3.64
2022-12-16T04:43:58.221Z,-3.48
2022-12-16T04:44:58.209Z,-3.51
2022-12-16T04:45:58.239Z,-3.52
2022-12-16T04:46:58.179Z,-3.46
2022-12-16T04:47:58.189Z,-3.49
2022-12-16T04:48:58.159Z,-3.44
2022-12-16T04:49:58.148Z,-3.35
2022-12-16T04:50:58.138Z,-3.46
2022-12-16T04:51:58.129Z,-3.44
2022-12-16T04:52:58.140Z,-3.46
2022-12-16T04:53:58.206Z,-3.46
2022-12-16T04:54:58.097Z,-3.46
2022-12-16T04:56:03.576Z,-3.45
2022-12-16T04:56:59.077Z,-3.49
2022-12-16T04:57:58.059Z,-3.46
2022-12-16T04:58:58.055Z,-3.46
2022-12-16T04:59:58.065Z,-3.55
2022-12-16T05:00:58.039Z,-3.59
2022-12-16T05:01:58.089Z,-3.67
2022-12-16T05:02:58.008Z,-3.67
2022-12-16T05:03:58.034Z,-3.59
2022-12-16T05:04:57.986Z,-3.63
2022-12-16T05:05:57.997Z,-3.51
2022-12-16T05:06:57.966Z,-3.54
2022-12-16T05:07:57.956Z,-3.69
2022-12-16T05:08:57.945Z,-3.61
2022-12-16T05:09:57.935Z,-3.48
2022-12-16T05:10:57.925Z,-3.49
2022-12-16T05:11:57.933Z,-3.48
2022-12-16T05:12:57.904Z,-3.54
2022-12-16T05:13:57.895Z,-3.49
2022-12-16T05:14:57.882Z,-3.44
2022-12-16T05:15:57.921Z,-3.44
2022-12-16T05:16:57.854Z,-3.34
2022-12-16T05:17:57.862Z,-3.38
2022-12-16T05:18:57.842Z,-3.31
2022-12-16T05:19:57.823Z,-3.22
2022-12-16T05:20:57.814Z,-3.25
2022-12-16T05:21:57.802Z,-3.19
2022-12-16T05:22:57.812Z,-3.23
2022-12-16T05:23:57.794Z,-3.25
2022-12-16T05:24:57.773Z,-3.23
2022-12-16T05:25:57.764Z,-3.25
2022-12-16T05:26:57.753Z,-3.25
2022-12-16T05:27:57.741Z,-3.25
2022-12-16T05:28:57.742Z,-3.30
2022-12-16T05:29:57.721Z,-3.31
2022-12-16T05:30:57.753Z,-3.23
2022-12-16T05:31:57.696Z,-3.23
2022-12-16T05:32:57.706Z,-3.30
2022-12-16T05:33:57.700Z,-3.31
2022-12-16T05:34:57.663Z,-3.25
2022-12-16T05:35:57.651Z,-3.30
2022-12-16T05:36:57.641Z,-3.40
2022-12-16T05:37:57.630Z,-3.38
2022-12-16T05:38:57.621Z,-3.34
2022-12-16T05:39:57.629Z,-3.34
2022-12-16T05:40:57.619Z,-3.34
2022-12-16T05:41:57.591Z,-3.41
2022-12-16T05:42:57.580Z,-3.49
2022-12-16T05:43:57.571Z,-3.51
2022-12-16T05:44:57.558Z,-3.56
2022-12-16T05:45:57.629Z,-3.63
2022-12-16T05:46:57.638Z,-3.66
2022-12-16T05:47:57.519Z,-3.69
2022-12-16T05:48:57.516Z,-3.75
2022-12-16T05:49:57.499Z,-3.69
2022-12-16T05:50:57.489Z,-3.61
2022-12-16T05:51:57.497Z,-3.74
2022-12-16T05:52:57.467Z,-3.67
2022-12-16T05:53:57.467Z,-3.67
2022-12-16T05:54:57.447Z,-3.64
2022-12-16T05:55:57.437Z,-3.61
2022-12-16T05:56:57.478Z,-3.67
2022-12-16T05:57:57.418Z,-3.54
2022-12-16T05:58:57.408Z,-3.54
2022-12-16T05:59:57.387Z,-3.58
2022-12-16T06:00:57.385Z,-3.61
2022-12-16T06:01:57.465Z,-3.67
2022-12-16T06:02:57.482Z,-3.59
2022-12-16T06:03:57.383Z,-3.56
2022-12-16T06:04:57.344Z,-3.54
2022-12-16T06:05:57.325Z,-3.52
2022-12-16T06:06:57.325Z,-3.54
2022-12-16T06:07:57.306Z,-3.46
2022-12-16T06:08:57.327Z,-3.48
2022-12-16T06:09:57.289Z,-3.41
2022-12-16T06:10:57.275Z,-3.44
2022-12-16T06:11:57.264Z,-3.40
2022-12-16T06:12:57.255Z,-3.40
2022-12-16T06:13:57.245Z,-3.33
2022-12-16T06:14:57.255Z,-3.35
2022-12-16T06:15:57.303Z,-3.31
2022-12-16T06:16:57.268Z,-3.35
2022-12-16T06:17:57.205Z,-3.33
2022-12-16T06:18:57.196Z,-3.35
2022-12-16T06:19:57.174Z,-3.30
2022-12-16T06:20:57.312Z,-3.34
2022-12-16T06:21:57.162Z,-3.34
2022-12-16T06:22:57.143Z,-3.37
2022-12-16T06:23:57.134Z,-3.34
2022-12-16T06:24:57.124Z,-3.27
2022-12-16T06:25:57.112Z,-3.27
2022-12-16T06:26:57.133Z,-3.30
2022-12-16T06:27:57.101Z,-3.22
2022-12-16T06:28:57.082Z,-3.30
2022-12-16T06:29:57.073Z,-3.25
2022-12-16T06:30:57.063Z,-3.22
2022-12-16T06:31:57.143Z,-3.22
2022-12-16T06:32:57.061Z,-3.19
2022-12-16T06:33:57.028Z,-3.20
2022-12-16T06:34:57.021Z,-3.17
2022-12-16T06:35:57.009Z,-3.27
2022-12-16T06:36:57.003Z,-3.27
2022-12-16T06:37:56.984Z,-3.25
2022-12-16T06:38:57.018Z,-3.23
2022-12-16T06:39:56.961Z,-3.31
2022-12-16T06:40:56.950Z,-3.31
2022-12-16T06:41:56.940Z,-3.35
2022-12-16T06:42:56.931Z,-3.34
2022-12-16T06:43:56.928Z,-3.27
2022-12-16T06:44:56.939Z,-3.22
2022-12-16T06:45:56.926Z,-3.25
2022-12-16T06:46:56.888Z,-3.20
2022-12-16T06:47:56.868Z,-3.28
2022-12-16T06:48:56.868Z,-3.22
2022-12-16T06:49:56.867Z,-3.22
2022-12-16T06:50:56.878Z,-3.19
2022-12-16T06:51:56.831Z,-3.02
2022-12-16T06:52:56.826Z,-3.02
2022-12-16T06:53:56.827Z,-3.12
2022-12-16T06:54:56.806Z,-3.01
2022-12-16T06:55:56.808Z,-2.95
2022-12-16T06:56:56.782Z,-2.89
2022-12-16T06:57:56.769Z,-2.95
2022-12-16T06:58:56.757Z,-2.91
2022-12-16T06:59:56.745Z,-2.91
2022-12-16T07:00:56.806Z,-3.04
2022-12-16T07:01:57.109Z,-3.02
2022-12-16T07:02:56.786Z,-3.07
2022-12-16T07:03:56.701Z,-2.91
2022-12-16T07:04:56.696Z,-2.83
2022-12-16T07:05:56.690Z,-2.88
2022-12-16T07:06:56.694Z,-2.92
2022-12-16T07:07:56.664Z,-3.02
2022-12-16T07:08:56.655Z,-2.95
2022-12-16T07:09:56.636Z,-2.94
2022-12-16T07:11:03.451Z,-2.89
2022-12-16T07:11:57.643Z,-2.88
2022-12-16T07:12:56.605Z,-2.86
2022-12-16T07:13:56.593Z,-2.97
2022-12-16T07:14:56.594Z,-2.94
2022-12-16T07:15:56.575Z,-2.89
2022-12-16T07:16:56.635Z,-2.97
2022-12-16T07:17:56.574Z,-2.92
2022-12-16T07:18:56.545Z,-2.97
2022-12-16T07:19:56.534Z,-3.01
2022-12-16T07:20:56.534Z,-2.86
2022-12-16T07:21:56.513Z,-2.78
2022-12-16T07:23:06.111Z,-2.76
2022-12-16T07:23:57.514Z,-2.81
2022-12-16T07:24:56.487Z,-2.81
2022-12-16T07:25:57.538Z,-2.84
2022-12-16T07:26:56.461Z,-2.94
2022-12-16T07:27:56.456Z,-2.99
2022-12-16T07:28:56.442Z,-3.01
2022-12-16T07:29:56.442Z,-3.04
2022-12-16T07:30:56.411Z,-3.06
2022-12-16T07:31:56.540Z,-3.04
2022-12-16T07:32:56.390Z,-2.99
2022-12-16T07:33:56.381Z,-2.92
2022-12-16T07:34:56.370Z,-2.94
2022-12-16T07:35:56.381Z,-2.99
2022-12-16T07:36:56.351Z,-2.98
2022-12-16T07:37:56.338Z,-3.10
2022-12-16T07:38:56.332Z,-3.10
2022-12-16T07:39:56.309Z,-3.16
2022-12-16T07:40:56.879Z,-3.13
2022-12-16T07:41:56.309Z,-3.06
2022-12-16T07:42:56.289Z,-3.15
2022-12-16T07:43:56.269Z,-3.20
2022-12-16T07:44:56.258Z,-3.16
2022-12-16T07:45:56.309Z,-3.12
2022-12-16T07:46:56.258Z,-3.15
2022-12-16T07:47:56.228Z,-3.06
2022-12-16T07:48:56.219Z,-2.92
2022-12-16T07:49:56.207Z,-2.92
2022-12-16T07:50:56.197Z,-2.88
2022-12-16T07:51:56.191Z,-2.74
2022-12-16T07:52:56.197Z,-2.66
2022-12-16T07:53:56.157Z,-2.60
2022-12-16T07:54:56.158Z,-2.60
2022-12-16T07:55:56.141Z,-2.53
2022-12-16T07:56:56.145Z,-2.38
2022-12-16T07:57:56.127Z,-2.34
2022-12-16T07:58:56.129Z,-2.30
2022-12-16T07:59:56.099Z,-2.21
2022-12-16T08:00:56.132Z,-2.12
2022-12-16T08:01:56.167Z,-2.01
2022-12-16T08:02:56.192Z,-1.69
2022-12-16T08:03:56.247Z,-1.22
2022-12-16T08:04:56.049Z,-0.86
2022-12-16T08:05:56.036Z,-0.71
2022-12-16T08:06:56.026Z,-0.68
2022-12-16T08:07:56.014Z,-0.61
2022-12-16T08:08:56.005Z,-0.50
2022-12-16T08:09:56.014Z,-0.41
2022-12-16T08:10:55.985Z,-0.25
2022-12-16T08:11:55.965Z,-0.17
2022-12-16T08:12:55.965Z,0.00
2022-12-16T08:13:55.953Z,0.16
2022-12-16T08:14:55.950Z,0.21
2022-12-16T08:15:56.020Z,0.46
2022-12-16T08:16:56.062Z,0.43
2022-12-16T08:17:55.904Z,0.47
2022-12-16T08:18:55.903Z,0.46
2022-12-16T08:19:55.886Z,0.47
2022-12-16T08:20:55.883Z,0.68
2022-12-16T08:21:55.887Z,0.88
2022-12-16T08:22:55.853Z,0.91
2022-12-16T08:23:55.833Z,1.12
2022-12-16T08:24:56.048Z,1.22
2022-12-16T08:25:55.815Z,1.32
2022-12-16T08:26:55.802Z,1.41
2022-12-16T08:27:55.823Z,1.24
2022-12-16T08:28:59.313Z,0.76
2022-12-16T08:29:57.017Z,1.02
2022-12-16T08:30:55.818Z,1.24
2022-12-16T08:31:55.753Z,1.42
2022-12-16T08:32:59.337Z,1.26
2022-12-16T08:33:56.743Z,1.20
2022-12-16T08:34:55.720Z,0.92
2022-12-16T08:35:55.711Z,0.99
2022-12-16T08:36:55.700Z,1.37
2022-12-16T08:37:55.681Z,1.62
2022-12-16T08:38:55.671Z,1.71
2022-12-16T08:40:17.995Z,1.81
2022-12-16T08:40:56.651Z,1.74
2022-12-16T08:41:55.640Z,1.77
2022-12-16T08:42:55.629Z,1.85
2022-12-16T08:43:55.621Z,1.73
2022-12-16T08:44:55.621Z,1.76
2022-12-16T08:45:55.667Z,2.10
2022-12-16T08:46:55.582Z,2.20
2022-12-16T08:47:55.578Z,2.20
2022-12-16T08:48:55.561Z,2.33
2022-12-16T08:49:57.892Z,2.22
2022-12-16T08:50:56.558Z,2.04
2022-12-16T08:51:55.529Z,2.33
2022-12-16T08:52:55.517Z,2.64
2022-12-16T08:53:55.510Z,2.77
2022-12-16T08:54:55.490Z,2.60
2022-12-16T08:55:55.838Z,2.97
2022-12-16T08:56:55.498Z,3.11
2022-12-16T08:57:55.462Z,2.95
2022-12-16T08:58:55.453Z,2.75
2022-12-16T08:59:55.439Z,2.85
2022-12-16T09:00:55.534Z,2.97
2022-12-16T09:01:55.498Z,2.92
2022-12-16T09:02:55.773Z,2.67
2022-12-16T09:03:55.506Z,2.60
2022-12-16T09:04:55.498Z,2.28
2022-12-16T09:05:55.381Z,2.24
2022-12-16T09:06:55.360Z,2.18
2022-12-16T09:07:55.440Z,2.25
2022-12-16T09:08:55.338Z,2.28
2022-12-16T09:09:55.327Z,2.35
2022-12-16T09:10:55.349Z,2.39
2022-12-16T09:11:55.309Z,2.53
2022-12-16T09:12:55.298Z,2.64
2022-12-16T09:13:55.306Z,2.87
2022-12-16T09:14:55.267Z,2.90
2022-12-16T09:15:55.273Z,2.95
2022-12-16T09:16:55.256Z,3.19
2022-12-16T09:17:55.247Z,3.51
2022-12-16T09:18:55.236Z,3.51
2022-12-16T09:19:55.444Z,3.05
2022-12-16T09:20:55.208Z,2.69
2022-12-16T09:21:55.197Z,2.39
2022-12-16T09:22:55.230Z,1.62
2022-12-16T09:23:55.186Z,1.20
2022-12-16T09:24:56.046Z,1.06
2022-12-16T09:25:55.610Z,0.87
2022-12-16T09:26:55.172Z,0.77
2022-12-16T09:27:55.136Z,0.55
2022-12-16T09:28:55.116Z,0.39
2022-12-16T09:29:55.106Z,0.40
2022-12-16T09:30:55.536Z,0.32
2022-12-16T09:31:55.115Z,0.46
2022-12-16T09:32:55.077Z,0.43
2022-12-16T09:33:55.069Z,0.31
2022-12-16T09:34:55.054Z,0.11
2022-12-16T09:35:55.473Z,0.04
2022-12-16T09:36:55.035Z,-0.10
2022-12-16T09:37:55.057Z,-0.07
2022-12-16T09:38:55.007Z,-0.32
2022-12-16T09:39:54.996Z,-0.35
2022-12-16T09:40:54.984Z,-0.38
2022-12-16T09:41:55.552Z,-0.39
2022-12-16T09:42:55.548Z,-0.34
2022-12-16T09:43:54.973Z,-0.32
2022-12-16T09:44:54.982Z,-0.26
2022-12-16T09:45:54.993Z,-0.17
2022-12-16T09:46:55.013Z,-0.11
2022-12-16T09:47:54.915Z,-0.18
2022-12-16T09:48:54.953Z,-0.25
2022-12-16T09:49:54.894Z,-0.26
2022-12-16T09:50:54.882Z,-0.43
2022-12-16T09:51:54.864Z,-0.38
2022-12-16T09:52:54.854Z,-0.29
2022-12-16T09:53:54.847Z,-0.15
2022-12-16T09:54:54.855Z,-0.02
2022-12-16T09:55:54.822Z,0.01
2022-12-16T09:56:55.372Z,0.12
2022-12-16T09:57:54.802Z,0.15
2022-12-16T09:58:54.782Z,0.01
2022-12-16T09:59:54.781Z,0.03
2022-12-16T10:00:54.795Z,-0.03
2022-12-16T10:01:54.905Z,-0.17
2022-12-16T10:02:54.977Z,-0.26
2022-12-16T10:03:54.843Z,-0.29
2022-12-16T10:04:54.718Z,-0.23
2022-12-16T10:05:54.720Z,-0.18
2022-12-16T10:06:54.710Z,-0.15
2022-12-16T10:07:54.690Z,-0.10
2022-12-16T10:08:54.670Z,0.04
2022-12-16T10:09:54.670Z,0.05
2022-12-16T10:10:54.650Z,0.04
2022-12-16T10:11:54.670Z,0.05
2022-12-16T10:12:54.630Z,0.10
2022-12-16T10:13:54.619Z,0.25
2022-12-16T10:14:54.611Z,0.15
2022-12-16T10:15:54.634Z,0.19
2022-12-16T10:16:54.591Z,0.21
2022-12-16T10:17:54.600Z,0.23
2022-12-16T10:18:54.643Z,0.26
2022-12-16T10:19:54.569Z,0.21
2022-12-16T10:20:54.547Z,0.10
2022-12-16T10:21:54.540Z,-0.06
2022-12-16T10:22:54.548Z,0.08
2022-12-16T10:23:54.518Z,0.19
2022-12-16T10:24:54.499Z,0.22
2022-12-16T10:25:54.498Z,0.25
2022-12-16T10:26:54.479Z,0.26
2022-12-16T10:27:54.468Z,0.36
2022-12-16T10:28:54.477Z,0.39
2022-12-16T10:29:54.448Z,0.44
2022-12-16T10:30:54.469Z,0.28
2022-12-16T10:31:54.427Z,0.40
2022-12-16T10:32:54.409Z,0.36
2022-12-16T10:33:54.407Z,0.46
2022-12-16T10:34:54.410Z,0.43
2022-12-16T10:35:55.486Z,0.40
2022-12-16T10:36:54.368Z,0.34
2022-12-16T10:37:54.365Z,0.39
2022-12-16T10:38:54.346Z,0.37
2022-12-16T10:39:54.346Z,0.41
2022-12-16T10:40:54.455Z,0.36
2022-12-16T10:41:54.315Z,0.36
2022-12-16T10:42:54.297Z,0.36
2022-12-16T10:43:54.295Z,0.41
2022-12-16T10:44:54.277Z,0.56
2022-12-16T10:45:54.318Z,0.56
2022-12-16T10:46:54.334Z,0.56
2022-12-16T10:47:54.245Z,0.47
2022-12-16T10:48:56.840Z,0.37
2022-12-16T10:49:55.020Z,0.55
2022-12-16T10:50:54.215Z,0.52
2022-12-16T10:51:54.206Z,0.44
2022-12-16T10:52:54.214Z,0.43
2022-12-16T10:53:54.183Z,0.62
2022-12-16T10:54:54.174Z,0.77
2022-12-16T10:55:54.158Z,0.70
2022-12-16T10:56:54.145Z,0.74
2022-12-16T10:57:54.165Z,0.83
2022-12-16T10:58:54.124Z,0.81
2022-12-16T10:59:54.119Z,0.70
2022-12-16T11:00:54.104Z,0.74
2022-12-16T11:01:54.239Z,0.77
2022-12-16T11:02:54.236Z,0.63
2022-12-16T11:03:54.521Z,0.62
2022-12-16T11:04:55.847Z,0.65
2022-12-16T11:05:54.053Z,0.41
2022-12-16T11:06:54.032Z,0.46
2022-12-16T11:07:54.022Z,0.59
2022-12-16T11:08:55.675Z,0.47
2022-12-16T11:09:54.124Z,0.52
2022-12-16T11:10:53.990Z,0.58
2022-12-16T11:11:53.981Z,0.55
2022-12-16T11:12:53.971Z,0.56
2022-12-16T11:13:53.961Z,0.60
2022-12-16T11:15:27.181Z,0.69
2022-12-16T11:15:55.574Z,0.76
2022-12-16T11:16:53.920Z,0.77
2022-12-16T11:17:53.914Z,0.76
2022-12-16T11:18:53.915Z,0.80
2022-12-16T11:19:53.900Z,0.73
2022-12-16T11:20:53.881Z,0.76
2022-12-16T11:21:53.895Z,0.87
2022-12-16T11:22:53.861Z,0.88
2022-12-16T11:23:53.848Z,0.92
2022-12-16T11:24:53.831Z,0.91
2022-12-16T11:25:53.832Z,0.94
2022-12-16T11:26:53.809Z,1.08
2022-12-16T11:27:53.820Z,1.16
2022-12-16T11:28:53.787Z,1.12
2022-12-16T11:29:53.779Z,1.10
2022-12-16T11:30:53.813Z,1.02
2022-12-16T11:31:59.546Z,1.13
2022-12-16T11:32:54.767Z,1.28
2022-12-16T11:33:53.739Z,1.37
2022-12-16T11:34:53.720Z,1.37
2022-12-16T11:35:53.718Z,1.22
2022-12-16T11:36:53.699Z,1.24
2022-12-16T11:37:53.718Z,1.32
2022-12-16T11:38:53.699Z,1.35
2022-12-16T11:39:53.668Z,1.19
2022-12-16T11:40:53.656Z,1.04
2022-12-16T11:41:53.647Z,1.16
2022-12-16T11:42:53.628Z,1.17
2022-12-16T11:43:53.618Z,1.13
2022-12-16T11:44:53.629Z,1.13
2022-12-16T11:45:53.605Z,1.28
2022-12-16T11:46:53.623Z,1.30
2022-12-16T11:47:53.578Z,1.31
2022-12-16T11:48:53.569Z,1.24
2022-12-16T11:49:53.556Z,1.31
2022-12-16T11:50:53.558Z,1.40
2022-12-16T11:51:59.741Z,1.44
2022-12-16T11:52:54.516Z,1.59
2022-12-16T11:53:53.513Z,1.68
2022-12-16T11:54:53.497Z,1.56
2022-12-16T11:56:05.934Z,1.49
2022-12-16T11:56:54.582Z,1.53
2022-12-16T11:57:53.466Z,1.68
2022-12-16T11:58:53.485Z,1.78
2022-12-16T11:59:53.443Z,1.85
2022-12-16T12:00:53.426Z,1.89
2022-12-16T12:01:55.552Z,2.11
2022-12-16T12:02:53.435Z,2.00
2022-12-16T12:03:53.515Z,1.95
2022-12-16T12:04:53.393Z,1.80
2022-12-16T12:05:53.375Z,1.92
2022-12-16T12:06:53.364Z,1.99
2022-12-16T12:07:53.376Z,1.89
2022-12-16T12:08:53.335Z,1.77
2022-12-16T12:09:53.325Z,1.94
2022-12-16T12:10:53.314Z,1.95
2022-12-16T12:11:53.306Z,1.99
2022-12-16T12:12:53.296Z,1.88
2022-12-16T12:13:53.312Z,1.87
2022-12-16T12:14:53.284Z,1.95
2022-12-16T12:15:53.333Z,2.02
2022-12-16T12:16:53.263Z,1.91
2022-12-16T12:17:53.244Z,1.81
2022-12-16T12:18:53.232Z,1.81
2022-12-16T12:19:53.233Z,1.87
2022-12-16T12:20:53.205Z,2.11
2022-12-16T12:21:53.213Z,1.99
2022-12-16T12:22:53.198Z,2.08
2022-12-16T12:23:53.173Z,1.99
2022-12-16T12:24:56.397Z,2.02
2022-12-16T12:25:53.152Z,1.78
2022-12-16T12:26:53.144Z,1.91
2022-12-16T12:27:53.130Z,1.94
2022-12-16T12:28:53.122Z,2.06
2022-12-16T12:29:53.107Z,2.08
2022-12-16T12:30:53.112Z,1.94
2022-12-16T12:31:53.211Z,1.80
2022-12-16T12:32:53.071Z,1.99
2022-12-16T12:33:53.062Z,2.00
2022-12-16T12:34:53.080Z,2.11
2022-12-16T12:35:53.070Z,2.14
2022-12-16T12:36:53.037Z,2.32
2022-12-16T12:37:53.019Z,2.47
2022-12-16T12:38:53.011Z,2.49
2022-12-16T12:39:52.992Z,2.57
2022-12-16T12:40:52.989Z,2.54
2022-12-16T12:41:52.983Z,2.50
2022-12-16T12:42:52.961Z,2.47
2022-12-16T12:43:52.950Z,2.56
2022-12-16T12:44:52.952Z,2.28
2022-12-16T12:45:52.969Z,2.24
2022-12-16T12:46:53.003Z,2.18
2022-12-16T12:47:52.911Z,2.13
2022-12-16T12:48:56.148Z,2.08
2022-12-16T12:49:52.880Z,2.11
2022-12-16T12:50:52.875Z,2.17
2022-12-16T12:51:52.860Z,2.31
2022-12-16T12:52:52.891Z,2.31
2022-12-16T12:53:52.837Z,2.08
2022-12-16T12:54:52.839Z,2.07
2022-12-16T12:55:52.822Z,2.06
2022-12-16T12:56:52.822Z,2.14
2022-12-16T12:57:52.792Z,2.10
2022-12-16T12:58:52.809Z,2.18
2022-12-16T12:59:55.931Z,2.26
2022-12-16T13:00:53.815Z,2.51